createdAt,value
2023-05-16T00:01:24.814Z,77212.28
2023-05-16T00:03:51.250Z,77224.50
2023-05-16T00:06:17.959Z,77234.69
2023-05-16T00:08:44.290Z,77230.63
2023-05-16T00:11:10.665Z,77236.75
2023-05-16T00:13:37.526Z,77240.81
2023-05-16T00:16:05.122Z,77242.88
2023-05-16T00:18:31.487Z,77259.19
2023-05-16T00:20:58.141Z,77257.13
2023-05-16T00:23:24.515Z,77240.81
2023-05-16T00:25:50.939Z,77259.19
2023-05-16T00:28:17.260Z,77263.25
2023-05-16T00:30:43.619Z,77267.34
2023-05-16T00:33:10.106Z,77267.34
2023-05-16T00:35:36.596Z,77263.25
2023-05-16T00:38:03.570Z,77267.34
2023-05-16T00:40:29.941Z,77275.50
2023-05-16T00:42:56.266Z,77279.56
2023-05-16T00:45:22.599Z,77285.69
2023-05-16T00:47:49.117Z,77289.78
2023-05-16T00:50:16.139Z,77302.00
2023-05-16T00:52:43.603Z,77299.97
2023-05-16T00:55:13.074Z,77310.16
2023-05-16T00:57:41.072Z,77312.19
2023-05-16T01:00:10.606Z,77340.75
2023-05-16T01:02:37.235Z,77353.00
2023-05-16T01:05:08.366Z,77361.16
2023-05-16T01:07:37.735Z,77369.31
2023-05-16T01:10:06.483Z,77387.66
2023-05-16T01:12:48.602Z,77393.78
2023-05-16T01:15:24.978Z,77403.97
2023-05-16T01:18:23.493Z,77416.22
2023-05-16T01:20:56.883Z,77426.41
2023-05-16T01:23:31.263Z,77430.50
2023-05-16T01:26:18.822Z,77442.72
2023-05-16T01:28:49.985Z,77448.84
2023-05-16T01:31:19.074Z,77450.88
2023-05-16T01:33:45.727Z,77446.81
2023-05-16T01:36:25.944Z,77444.75
2023-05-16T01:39:03.294Z,77465.16
2023-05-16T01:41:59.537Z,77477.41
2023-05-16T01:44:37.454Z,77487.59
2023-05-16T01:47:09.624Z,77483.50
2023-05-16T01:49:41.287Z,77489.63
2023-05-16T01:52:16.091Z,77491.66
2023-05-16T01:54:45.702Z,77501.88
2023-05-16T01:57:12.940Z,77499.84
2023-05-16T01:59:42.704Z,77505.94
2023-05-16T02:02:10.278Z,77499.84
2023-05-16T02:04:37.942Z,77503.91
2023-05-16T02:07:04.513Z,77508.00
2023-05-16T02:09:31.191Z,77503.91
2023-05-16T02:11:57.535Z,77512.06
2023-05-16T02:14:25.757Z,77508.00
2023-05-16T02:16:52.231Z,77512.06
2023-05-16T02:19:18.820Z,77501.88
2023-05-16T02:21:45.381Z,77508.00
2023-05-16T02:24:11.719Z,77503.91
2023-05-16T02:26:38.034Z,77505.94
2023-05-16T02:29:04.440Z,77501.88
2023-05-16T02:31:32.875Z,77499.84
2023-05-16T02:33:59.815Z,77495.75
2023-05-16T02:36:26.904Z,77499.84
2023-05-16T02:38:53.863Z,77514.09
2023-05-16T02:41:22.216Z,77520.22
2023-05-16T02:43:49.449Z,77528.38
2023-05-16T02:46:27.642Z,77532.47
2023-05-16T02:48:54.633Z,77530.44
2023-05-16T02:51:22.720Z,77536.53
2023-05-16T02:53:49.517Z,77538.59
2023-05-16T02:56:16.506Z,77544.69
2023-05-16T02:58:43.404Z,77548.78
2023-05-16T03:01:09.957Z,77548.78
2023-05-16T03:03:37.659Z,77546.75
2023-05-16T03:06:04.244Z,77552.84
2023-05-16T03:08:32.661Z,77558.97
2023-05-16T03:10:59.123Z,77556.94
2023-05-16T03:13:25.491Z,77571.22
2023-05-16T03:15:53.255Z,77573.25
2023-05-16T03:18:19.758Z,77585.50
2023-05-16T03:20:46.128Z,77589.56
2023-05-16T03:23:12.726Z,77589.56
2023-05-16T03:25:39.238Z,77614.03
2023-05-16T03:28:07.772Z,77609.97
2023-05-16T03:30:34.774Z,77616.09
2023-05-16T03:33:01.365Z,77618.13
2023-05-16T03:35:28.918Z,77614.03
2023-05-16T03:37:55.640Z,77614.03
2023-05-16T03:40:22.105Z,77620.16
2023-05-16T03:42:48.429Z,77632.41
2023-05-16T03:45:14.813Z,77640.56
2023-05-16T03:47:41.387Z,77646.69
2023-05-16T03:50:08.260Z,77658.91
2023-05-16T03:52:34.662Z,77656.88
2023-05-16T03:55:02.915Z,77660.97
2023-05-16T03:57:32.396Z,77665.03
2023-05-16T03:59:58.950Z,77675.22
2023-05-16T04:02:25.880Z,77685.44
2023-05-16T04:04:52.383Z,77689.50
2023-05-16T04:07:18.773Z,77693.59
2023-05-16T04:09:45.114Z,77697.66
2023-05-16T04:12:11.469Z,77703.78
2023-05-16T04:14:38.091Z,77711.94
2023-05-16T04:17:05.044Z,77705.81
2023-05-16T04:19:31.535Z,77711.94
2023-05-16T04:21:57.883Z,77709.91
2023-05-16T04:24:26.491Z,77711.94
2023-05-16T04:26:52.888Z,77724.19
2023-05-16T04:29:19.521Z,77732.34
2023-05-16T04:31:45.914Z,77736.44
2023-05-16T04:34:13.028Z,77742.53
2023-05-16T04:36:39.425Z,77738.47
2023-05-16T04:39:06.210Z,77740.50
2023-05-16T04:41:33.641Z,77750.69
2023-05-16T04:44:02.344Z,77754.78
2023-05-16T04:46:28.773Z,77760.91
2023-05-16T04:48:55.449Z,77754.78
2023-05-16T04:51:21.787Z,77760.91
2023-05-16T04:53:48.585Z,77752.75
2023-05-16T04:56:14.946Z,77756.81
2023-05-16T04:58:42.909Z,77750.69
2023-05-16T05:01:09.475Z,77746.63
2023-05-16T05:03:36.339Z,77758.84
2023-05-16T05:06:03.020Z,77760.91
2023-05-16T05:08:29.349Z,77760.91
2023-05-16T05:10:56.319Z,77773.13
2023-05-16T05:13:22.711Z,77773.13
2023-05-16T05:15:50.264Z,77758.84
2023-05-16T05:18:16.669Z,77752.75
2023-05-16T05:20:43.404Z,77750.69
2023-05-16T05:23:09.814Z,77760.91
2023-05-16T05:25:37.905Z,77754.78
2023-05-16T05:28:04.458Z,77754.78
2023-05-16T05:30:31.170Z,77748.66
2023-05-16T05:32:57.559Z,77744.59
2023-05-16T05:35:23.914Z,77750.69
2023-05-16T05:37:50.639Z,77738.47
2023-05-16T05:40:17.085Z,77732.34
2023-05-16T05:42:46.092Z,77736.44
2023-05-16T05:45:14.583Z,77728.25
2023-05-16T05:47:41.218Z,77714.00
2023-05-16T05:50:08.863Z,77705.81
2023-05-16T05:52:35.311Z,77709.91
2023-05-16T05:55:01.762Z,77703.78
2023-05-16T05:57:28.127Z,77695.63
2023-05-16T05:59:54.460Z,77693.59
2023-05-16T06:02:20.826Z,77689.50
2023-05-16T06:04:47.356Z,77687.47
2023-05-16T06:07:15.906Z,77675.22
2023-05-16T06:09:43.444Z,77671.16
2023-05-16T06:12:09.876Z,77669.13
2023-05-16T06:14:36.202Z,77658.91
2023-05-16T06:17:02.577Z,77648.72
2023-05-16T06:19:28.981Z,77642.59
2023-05-16T06:21:55.511Z,77632.41
2023-05-16T06:24:22.091Z,77630.38
2023-05-16T06:26:50.012Z,77618.13
2023-05-16T06:29:17.239Z,77612.00
2023-05-16T06:31:44.607Z,77597.72
2023-05-16T06:34:11.153Z,77591.63
2023-05-16T06:36:37.575Z,77591.63
2023-05-16T06:39:04.888Z,77571.22
2023-05-16T06:41:31.346Z,77563.06
2023-05-16T06:43:57.763Z,77561.03
2023-05-16T06:46:24.267Z,77550.81
2023-05-16T06:48:50.822Z,77550.81
2023-05-16T06:51:17.255Z,77554.91
2023-05-16T06:53:43.619Z,77544.69
2023-05-16T06:56:10.010Z,77548.78
2023-05-16T06:58:36.533Z,77538.59
2023-05-16T07:01:03.131Z,77532.47
2023-05-16T07:03:29.669Z,77536.53
2023-05-16T07:05:57.262Z,77534.50
2023-05-16T07:08:25.837Z,77524.31
2023-05-16T07:10:52.199Z,77530.44
2023-05-16T07:13:21.304Z,77528.38
2023-05-16T07:15:47.652Z,77524.31
2023-05-16T07:18:14.150Z,77516.16
2023-05-16T07:20:40.661Z,77503.91
2023-05-16T07:23:07.052Z,77499.84
2023-05-16T07:25:33.568Z,77491.66
2023-05-16T07:28:00.868Z,77493.72
2023-05-16T07:30:27.308Z,77491.66
2023-05-16T07:32:54.084Z,77489.63
2023-05-16T07:35:20.629Z,77495.75
2023-05-16T07:37:47.446Z,77489.63
2023-05-16T07:40:14.425Z,77479.44
2023-05-16T07:42:40.822Z,77473.31
2023-05-16T07:45:07.615Z,77475.34
2023-05-16T07:47:34.429Z,77452.91
2023-05-16T07:50:01.029Z,77481.47
2023-05-16T07:52:27.601Z,77461.09
2023-05-16T07:54:54.043Z,77467.19
2023-05-16T07:57:21.654Z,77459.03
2023-05-16T07:59:49.823Z,77450.88
2023-05-16T08:02:16.951Z,77444.75
2023-05-16T08:04:43.318Z,77436.59
2023-05-16T08:07:09.785Z,77430.50
2023-05-16T08:09:36.197Z,77426.41
2023-05-16T08:12:03.725Z,77420.28
2023-05-16T08:14:31.950Z,77414.16
2023-05-16T08:17:01.432Z,77412.13
2023-05-16T08:19:28.055Z,77377.47
2023-05-16T08:21:54.919Z,77395.81
2023-05-16T08:24:21.344Z,77399.91
2023-05-16T08:26:47.739Z,77401.94
2023-05-16T08:29:14.328Z,77436.59
2023-05-16T08:31:40.881Z,77469.25
2023-05-16T08:34:11.547Z,77475.34
2023-05-16T08:36:38.188Z,77491.66
2023-05-16T08:39:05.073Z,77487.59
2023-05-16T08:41:31.643Z,77475.34
2023-05-16T08:43:58.180Z,77485.56
2023-05-16T08:46:25.936Z,77475.34
2023-05-16T08:48:53.862Z,77481.47
2023-05-16T08:51:21.118Z,77487.59
2023-05-16T08:54:17.113Z,77501.88
2023-05-16T08:56:45.029Z,77491.66
2023-05-16T08:59:15.058Z,77471.28
2023-05-16T09:01:41.900Z,77442.72
2023-05-16T09:04:09.513Z,77434.56
2023-05-16T09:06:36.795Z,77430.50
2023-05-16T09:09:04.604Z,77410.09
2023-05-16T09:11:35.515Z,77399.91
2023-05-16T09:14:03.728Z,77389.69
2023-05-16T09:16:30.236Z,77381.53
2023-05-16T09:19:01.718Z,77381.53
2023-05-16T09:21:33.606Z,77344.84
2023-05-16T09:24:04.857Z,77359.09
2023-05-16T09:26:33.153Z,77350.94
2023-05-16T09:28:59.682Z,77385.63
2023-05-16T09:31:27.959Z,77426.41
2023-05-16T09:33:56.441Z,77459.03
2023-05-16T09:36:22.853Z,77459.03
2023-05-16T09:38:51.650Z,77436.59
2023-05-16T09:41:18.354Z,77412.13
2023-05-16T09:43:45.140Z,77391.75
2023-05-16T09:46:19.964Z,77381.53
2023-05-16T09:48:47.516Z,77346.88
2023-05-16T09:51:14.845Z,77322.41
2023-05-16T09:53:41.846Z,77328.50
2023-05-16T09:56:12.529Z,77320.34
2023-05-16T09:58:40.815Z,77324.44
2023-05-16T10:01:08.837Z,77312.19
2023-05-16T10:03:36.872Z,77322.41
2023-05-16T10:06:05.801Z,77320.34
2023-05-16T10:08:36.407Z,77338.72
2023-05-16T10:11:05.702Z,77338.72
2023-05-16T10:13:34.532Z,77326.47
2023-05-16T10:16:11.687Z,77314.25
2023-05-16T10:18:39.702Z,77308.13
2023-05-16T10:21:11.612Z,77287.72
2023-05-16T10:23:42.444Z,77297.94
2023-05-16T10:26:09.795Z,77299.97
2023-05-16T10:28:36.314Z,77328.50
2023-05-16T10:31:03.070Z,77326.47
2023-05-16T10:33:29.720Z,77332.59
2023-05-16T10:35:56.759Z,77344.84
2023-05-16T10:38:24.445Z,77314.25
2023-05-16T10:40:51.492Z,77304.03
2023-05-16T10:43:30.274Z,77285.69
2023-05-16T10:45:58.854Z,77293.84
2023-05-16T10:48:39.276Z,77269.38
2023-05-16T10:51:38.593Z,77259.19
2023-05-16T10:54:10.726Z,77273.44
2023-05-16T10:56:37.567Z,77248.97
2023-05-16T10:59:04.949Z,77244.91
2023-05-16T11:01:34.938Z,77224.50
2023-05-16T11:04:10.146Z,77228.59
2023-05-16T11:06:42.828Z,77220.44
2023-05-16T11:09:13.412Z,77230.63
2023-05-16T11:11:48.619Z,77208.19
2023-05-16T11:14:25.620Z,77216.34
2023-05-16T11:17:11.013Z,77212.28
2023-05-16T11:19:45.201Z,77208.19
2023-05-16T11:22:18.705Z,77234.69
2023-05-16T11:25:03.111Z,77273.44
2023-05-16T11:27:34.301Z,77279.56
2023-05-16T11:30:06.767Z,77291.81
2023-05-16T11:32:43.269Z,77279.56
2023-05-16T11:35:15.300Z,77263.25
2023-05-16T11:37:42.820Z,77275.50
2023-05-16T11:40:12.083Z,77271.41
2023-05-16T11:42:40.302Z,77279.56
2023-05-16T11:45:18.322Z,77263.25
2023-05-16T11:47:48.201Z,77230.63
2023-05-16T11:50:17.498Z,77226.53
2023-05-16T11:52:46.549Z,77189.84
2023-05-16T11:55:19.254Z,77173.53
2023-05-16T11:57:52.358Z,77167.41
2023-05-16T12:00:24.898Z,77140.91
2023-05-16T12:02:52.051Z,77149.06
2023-05-16T12:05:20.736Z,77140.91
2023-05-16T12:07:47.757Z,77124.56
2023-05-16T12:10:15.916Z,77122.53
2023-05-16T12:12:45.341Z,77140.91
2023-05-16T12:15:12.604Z,77153.13
2023-05-16T12:17:40.770Z,77167.41
2023-05-16T12:20:14.287Z,77193.91
2023-05-16T12:22:41.553Z,77189.84
2023-05-16T12:25:31.950Z,77151.09
2023-05-16T12:28:01.508Z,77138.84
2023-05-16T12:30:29.738Z,77110.31
2023-05-16T12:32:57.844Z,77106.22
2023-05-16T12:35:25.761Z,77108.25
2023-05-16T12:37:53.072Z,77124.56
2023-05-16T12:40:20.627Z,77136.81
2023-05-16T12:42:55.947Z,77159.25
2023-05-16T12:45:23.159Z,77163.31
2023-05-16T12:47:49.993Z,77169.44
2023-05-16T12:50:17.577Z,77153.13
2023-05-16T12:52:50.809Z,77138.84
2023-05-16T12:55:18.454Z,77126.63
2023-05-16T12:57:47.680Z,77094.00
2023-05-16T13:00:15.865Z,77098.06
2023-05-16T13:02:42.343Z,77102.16
2023-05-16T13:05:10.146Z,77075.63
2023-05-16T13:07:37.347Z,77075.63
2023-05-16T13:10:04.310Z,77075.63
2023-05-16T13:12:31.030Z,77045.03
2023-05-16T13:14:57.689Z,77040.97
2023-05-16T13:17:24.083Z,77051.16
2023-05-16T13:19:51.341Z,77043.00
2023-05-16T13:22:17.996Z,77091.94
2023-05-16T13:24:44.439Z,77120.50
2023-05-16T13:27:10.847Z,77120.50
2023-05-16T13:29:37.349Z,77130.69
2023-05-16T13:32:04.344Z,77130.69
2023-05-16T13:34:32.094Z,77126.63
2023-05-16T13:36:58.483Z,77083.78
2023-05-16T13:39:25.014Z,77063.41
2023-05-16T13:41:51.965Z,77032.81
2023-05-16T13:44:18.714Z,77008.34
2023-05-16T13:46:45.819Z,77010.38
2023-05-16T13:49:12.242Z,77049.13
2023-05-16T13:51:38.619Z,77075.63
2023-05-16T13:54:05.024Z,77094.00
2023-05-16T13:56:31.407Z,77108.25
2023-05-16T13:59:02.230Z,77122.53
2023-05-16T14:01:32.830Z,77140.91
2023-05-16T14:03:59.325Z,77155.16
2023-05-16T14:06:25.814Z,77159.25
2023-05-16T14:08:52.200Z,77171.47
2023-05-16T14:11:19.814Z,77189.84
2023-05-16T14:13:46.518Z,77200.03
2023-05-16T14:16:12.980Z,77206.16
2023-05-16T14:18:39.515Z,77191.88
2023-05-16T14:21:05.996Z,77189.84
2023-05-16T14:23:32.384Z,77179.63
2023-05-16T14:25:58.917Z,77159.25
2023-05-16T14:28:25.289Z,77163.31
2023-05-16T14:30:51.709Z,77175.56
2023-05-16T14:33:18.162Z,77173.53
2023-05-16T14:35:45.010Z,77181.69
2023-05-16T14:38:11.452Z,77191.88
2023-05-16T14:40:38.252Z,77198.00
2023-05-16T14:43:04.684Z,77212.28
2023-05-16T14:45:31.284Z,77216.34
2023-05-16T14:47:57.728Z,77238.78
2023-05-16T14:50:24.184Z,77246.94
2023-05-16T14:52:50.577Z,77238.78
2023-05-16T14:55:16.972Z,77248.97
2023-05-16T14:57:45.501Z,77248.97
2023-05-16T15:00:13.303Z,77244.91
2023-05-16T15:02:39.793Z,77253.06
2023-05-16T15:05:06.798Z,77255.09
2023-05-16T15:07:33.202Z,77261.22
2023-05-16T15:09:59.614Z,77267.34
2023-05-16T15:12:25.989Z,77279.56
2023-05-16T15:14:52.488Z,77279.56
2023-05-16T15:17:18.918Z,77283.66
2023-05-16T15:19:45.562Z,77289.78
2023-05-16T15:22:12.024Z,77310.16
2023-05-16T15:24:38.495Z,77312.19
2023-05-16T15:27:05.296Z,77318.31
2023-05-16T15:29:34.372Z,77324.44
2023-05-16T15:32:04.704Z,77322.41
2023-05-16T15:34:31.978Z,77310.16
2023-05-16T15:36:58.826Z,77312.19
2023-05-16T15:39:28.161Z,77312.19
2023-05-16T15:42:08.579Z,77293.84
2023-05-16T15:44:36.122Z,77248.97
2023-05-16T15:47:02.604Z,77259.19
2023-05-16T15:49:29.033Z,77259.19
2023-05-16T15:51:55.439Z,77263.25
2023-05-16T15:54:21.837Z,77257.13
2023-05-16T15:56:48.367Z,77248.97
2023-05-16T15:59:14.832Z,77263.25
2023-05-16T16:01:41.307Z,77267.34
2023-05-16T16:04:07.898Z,77269.38
2023-05-16T16:06:34.338Z,77248.97
2023-05-16T16:09:00.875Z,77261.22
2023-05-16T16:11:27.518Z,77267.34
2023-05-16T16:13:53.907Z,77271.41
2023-05-16T16:16:20.322Z,77299.97
2023-05-16T16:18:46.855Z,77285.69
2023-05-16T16:21:13.448Z,77293.84
2023-05-16T16:23:40.453Z,77281.59
2023-05-16T16:26:06.895Z,77291.81
2023-05-16T16:28:33.328Z,77306.09
2023-05-16T16:30:59.804Z,77322.41
2023-05-16T16:33:26.233Z,77336.69
2023-05-16T16:35:54.469Z,77346.88
2023-05-16T16:38:21.370Z,77348.91
2023-05-16T16:40:47.749Z,77346.88
2023-05-16T16:43:14.844Z,77346.88
2023-05-16T16:45:41.303Z,77342.78
2023-05-16T16:48:09.190Z,77338.72
2023-05-16T16:50:35.644Z,77346.88
2023-05-16T16:53:04.146Z,77353.00
2023-05-16T16:55:31.097Z,77365.22
2023-05-16T16:57:57.725Z,77391.75
2023-05-16T17:00:24.456Z,77393.78
2023-05-16T17:02:51.167Z,77389.69
2023-05-16T17:05:17.826Z,77399.91
2023-05-16T17:07:44.345Z,77403.97
2023-05-16T17:10:10.922Z,77406.00
2023-05-16T17:12:44.327Z,77410.09
2023-05-16T17:15:11.763Z,77416.22
2023-05-16T17:17:38.461Z,77426.41
2023-05-16T17:20:07.160Z,77432.53
2023-05-16T17:22:33.765Z,77426.41
2023-05-16T17:25:00.143Z,77436.59
2023-05-16T17:27:26.562Z,77434.56
2023-05-16T17:29:52.977Z,77434.56
2023-05-16T17:32:21.290Z,77436.59
2023-05-16T17:34:48.146Z,77440.69
2023-05-16T17:37:14.629Z,77444.75
2023-05-16T17:39:41.004Z,77442.72
2023-05-16T17:42:07.541Z,77444.75
2023-05-16T17:44:33.977Z,77450.88
2023-05-16T17:47:00.504Z,77450.88
2023-05-16T17:49:27.071Z,77442.72
2023-05-16T17:51:56.528Z,77450.88
2023-05-16T17:54:23.957Z,77457.00
2023-05-16T17:56:50.780Z,77461.09
2023-05-16T17:59:17.683Z,77465.16
2023-05-16T18:01:44.054Z,77467.19
2023-05-16T18:04:10.748Z,77475.34
2023-05-16T18:06:38.201Z,77467.19
2023-05-16T18:09:10.144Z,77479.44
2023-05-16T18:11:38.829Z,77487.59
2023-05-16T18:14:05.379Z,77483.50
2023-05-16T18:16:31.852Z,77497.78
2023-05-16T18:18:58.506Z,77487.59
2023-05-16T18:21:25.192Z,77497.78
2023-05-16T18:23:51.714Z,77493.72
2023-05-16T18:26:19.122Z,77497.78
2023-05-16T18:28:45.829Z,77497.78
2023-05-16T18:31:12.396Z,77510.03
2023-05-16T18:33:38.903Z,77510.03
2023-05-16T18:36:05.594Z,77514.09
2023-05-16T18:38:33.611Z,77514.09
2023-05-16T18:41:00.428Z,77526.34
2023-05-16T18:43:26.900Z,77528.38
2023-05-16T18:45:53.336Z,77538.59
2023-05-16T18:48:19.867Z,77540.63
2023-05-16T18:50:46.646Z,77536.53
2023-05-16T18:53:13.117Z,77544.69
2023-05-16T18:55:39.594Z,77552.84
2023-05-16T18:58:06.871Z,77552.84
2023-05-16T19:00:34.199Z,77550.81
2023-05-16T19:03:01.206Z,77552.84
2023-05-16T19:05:28.186Z,77544.69
2023-05-16T19:07:54.776Z,77558.97
2023-05-16T19:10:21.260Z,77558.97
2023-05-16T19:12:48.945Z,77563.06
2023-05-16T19:15:15.540Z,77579.38
2023-05-16T19:17:42.073Z,77579.38
2023-05-16T19:20:09.364Z,77587.53
2023-05-16T19:22:36.010Z,77587.53
2023-05-16T19:25:02.705Z,77595.69
2023-05-16T19:27:29.122Z,77599.78
2023-05-16T19:29:57.049Z,77601.81
2023-05-16T19:32:23.589Z,77603.84
2023-05-16T19:34:49.979Z,77609.97
2023-05-16T19:37:16.426Z,77620.16
2023-05-16T19:39:42.787Z,77620.16
2023-05-16T19:42:09.169Z,77626.28
2023-05-16T19:44:35.599Z,77640.56
2023-05-16T19:47:02.256Z,77644.63
2023-05-16T19:49:31.540Z,77644.63
2023-05-16T19:51:58.061Z,77644.63
2023-05-16T19:54:24.520Z,77644.63
2023-05-16T19:56:51.005Z,77646.69
2023-05-16T19:59:17.490Z,77646.69
2023-05-16T20:01:43.989Z,77644.63
2023-05-16T20:04:11.421Z,77646.69
2023-05-16T20:06:37.947Z,77652.81
2023-05-16T20:09:04.352Z,77663.00
2023-05-16T20:11:30.754Z,77660.97
2023-05-16T20:13:59.440Z,77658.91
2023-05-16T20:16:26.957Z,77669.13
2023-05-16T20:18:53.488Z,77675.22
2023-05-16T20:21:19.933Z,77669.13
2023-05-16T20:23:46.325Z,77671.16
2023-05-16T20:26:15.756Z,77669.13
2023-05-16T20:28:44.952Z,77681.34
2023-05-16T20:31:11.326Z,77687.47
2023-05-16T20:33:37.748Z,77714.00
2023-05-16T20:36:04.373Z,77746.63
2023-05-16T20:38:30.913Z,77777.22
2023-05-16T20:40:57.565Z,77785.38
2023-05-16T20:43:26.478Z,77797.63
2023-05-16T20:45:53.162Z,77805.78
2023-05-16T20:48:19.601Z,77826.16
2023-05-16T20:50:46.115Z,77834.31
2023-05-16T20:53:12.620Z,77828.22
2023-05-16T20:55:39.010Z,77838.41
2023-05-16T20:58:06.080Z,77838.41
2023-05-16T21:00:33.591Z,77832.28
2023-05-16T21:03:00.044Z,77830.25
2023-05-16T21:05:26.562Z,77830.25
2023-05-16T21:07:53.231Z,77830.25
2023-05-16T21:10:20.146Z,77824.13
2023-05-16T21:12:46.917Z,77836.38
2023-05-16T21:15:13.353Z,77828.22
2023-05-16T21:17:40.781Z,77832.28
2023-05-16T21:20:08.806Z,77832.28
2023-05-16T21:22:35.577Z,77828.22
2023-05-16T21:25:02.065Z,77836.38
2023-05-16T21:27:28.590Z,77836.38
2023-05-16T21:29:55.201Z,77840.44
2023-05-16T21:32:21.617Z,77844.53
2023-05-16T21:34:47.994Z,77854.72
2023-05-16T21:37:14.694Z,77856.75
2023-05-16T21:39:41.331Z,77862.88
2023-05-16T21:42:07.802Z,77875.13
2023-05-16T21:44:34.280Z,77875.13
2023-05-16T21:47:00.914Z,77885.31
2023-05-16T21:49:27.330Z,77887.34
2023-05-16T21:51:53.711Z,77889.41
2023-05-16T21:54:20.084Z,77905.72
2023-05-16T21:56:46.579Z,77915.91
2023-05-16T21:59:13.843Z,77920.00
2023-05-16T22:01:40.237Z,77928.16
2023-05-16T22:04:06.823Z,77934.28
2023-05-16T22:06:33.400Z,77942.44
2023-05-16T22:09:01.390Z,77946.50
2023-05-16T22:11:27.880Z,77964.88
2023-05-16T22:13:54.266Z,77964.88
2023-05-16T22:16:20.641Z,77973.03
2023-05-16T22:18:47.384Z,77981.19
2023-05-16T22:21:15.991Z,77979.16
2023-05-16T22:23:42.691Z,77983.22
2023-05-16T22:26:09.082Z,77983.22
2023-05-16T22:28:35.546Z,77991.38
2023-05-16T22:31:01.910Z,77995.47
2023-05-16T22:33:28.472Z,77993.44
2023-05-16T22:35:55.058Z,77993.44
2023-05-16T22:38:21.461Z,77985.28
2023-05-16T22:40:47.814Z,77983.22
2023-05-16T22:43:14.225Z,77991.38
2023-05-16T22:45:40.760Z,77993.44
2023-05-16T22:48:07.252Z,77985.28
2023-05-16T22:50:33.773Z,77991.38
2023-05-16T22:53:00.241Z,77993.44
2023-05-16T22:55:26.820Z,77999.53
2023-05-16T22:57:56.914Z,78015.88
2023-05-16T23:00:23.518Z,78019.94
2023-05-16T23:02:50.005Z,78030.16
2023-05-16T23:05:16.819Z,78032.19
2023-05-16T23:07:43.233Z,78034.22
2023-05-16T23:10:09.795Z,78034.22
2023-05-16T23:12:36.155Z,78040.34
2023-05-16T23:15:03.152Z,78046.47
2023-05-16T23:17:29.671Z,78056.66
2023-05-16T23:19:56.330Z,78056.66
2023-05-16T23:22:22.840Z,78058.69
2023-05-16T23:24:49.203Z,78062.78
2023-05-16T23:27:15.564Z,78060.75
2023-05-16T23:29:42.059Z,78077.06
2023-05-16T23:32:08.460Z,78075.03
2023-05-16T23:34:34.838Z,78085.22
2023-05-16T23:37:01.390Z,78081.13
2023-05-16T23:39:27.815Z,78083.19
2023-05-16T23:41:54.277Z,78081.13
2023-05-16T23:44:20.682Z,78085.22
2023-05-16T23:46:47.050Z,78081.13
2023-05-16T23:49:13.451Z,78087.25
2023-05-16T23:51:55.834Z,78091.34
2023-05-16T23:54:23.065Z,78095.41
2023-05-16T23:56:49.595Z,78117.84
2023-05-16T23:59:16.349Z,78119.91
